Time;durP1;ratioP1;P1;durP2;ratioP2;P2;SDS_P1;SDS_P2;PMS_P1;PMS_P2;Temp;Humidity;BMP_temperature;BMP_pressure;BME280_temperature;BME280_humidity;BME280_pressure;Samples;Min_cycle;Max_cycle;Signal;HPM_P1;HPM_P2
2023/05/15 00:00:15;;;;;;;6.65;4.57;;;;;;;;;;5015889;28;20047;-72
2023/05/15 00:03:01;;;;;;;6.25;4.35;;;;;;;;;;5027322;28;20105;-71
2023/05/15 00:05:46;;;;;;;6.20;4.32;;;;;;;;;;5023470;28;20120;-72
2023/05/15 00:08:31;;;;;;;6.15;4.10;;;;;;;;;;5025327;28;20033;-71
2023/05/15 00:11:16;;;;;;;7.13;4.47;;;;;;;;;;5011754;28;20071;-70
2023/05/15 00:14:02;;;;;;;8.45;4.90;;;;;;;;;;5022584;28;20115;-70
2023/05/15 00:16:47;;;;;;;6.55;3.95;;;;;;;;;;5023502;28;20078;-70
2023/05/15 00:19:32;;;;;;;7.45;4.53;;;;;;;;;;5007810;28;20034;-70
2023/05/15 00:22:17;;;;;;;5.95;4.07;;;;;;;;;;5022451;28;20083;-71
2023/05/15 00:25:03;;;;;;;5.68;3.95;;;;;;;;;;5029974;28;20448;-76
2023/05/15 00:27:48;;;;;;;6.55;3.65;;;;;;;;;;5028727;28;20021;-73
2023/05/15 00:30:33;;;;;;;5.40;3.83;;;;;;;;;;5029952;28;20029;-71
2023/05/15 00:33:19;;;;;;;5.88;3.80;;;;;;;;;;5006714;28;20914;-71
2023/05/15 00:36:04;;;;;;;6.47;4.03;;;;;;;;;;5029915;28;20025;-71
2023/05/15 00:38:50;;;;;;;6.32;3.72;;;;;;;;;;5030237;28;20076;-69
2023/05/15 00:41:35;;;;;;;5.68;3.65;;;;;;;;;;5013666;28;20024;-70
2023/05/15 00:44:21;;;;;;;4.78;3.50;;;;;;;;;;5030209;28;20144;-73
2023/05/15 00:47:06;;;;;;;6.47;3.50;;;;;;;;;;5029920;28;20036;-75
2023/05/15 00:49:52;;;;;;;7.82;3.40;;;;;;;;;;5028053;28;20068;-75
2023/05/15 00:52:37;;;;;;;5.78;4.13;;;;;;;;;;5025750;28;20069;-73
2023/05/15 00:55:23;;;;;;;5.72;3.55;;;;;;;;;;5026525;28;20061;-75
2023/05/15 00:58:09;;;;;;;5.57;3.63;;;;;;;;;;5026736;28;20014;-75
2023/05/15 01:00:55;;;;;;;7.93;3.67;;;;;;;;;;5030104;28;20025;-75
2023/05/15 01:03:40;;;;;;;6.07;3.75;;;;;;;;;;5030858;28;20030;-71
2023/05/15 01:06:25;;;;;;;5.28;3.80;;;;;;;;;;5022334;28;20028;-70
2023/05/15 01:09:12;;;;;;;7.43;3.28;;;;;;;;;;5026593;28;20062;-72
2023/05/15 01:11:59;;;;;;;6.45;3.75;;;;;;;;;;5007084;28;20376;-71
2023/05/15 01:14:44;;;;;;;5.82;3.55;;;;;;;;;;5025879;28;20034;-70
2023/05/15 01:17:29;;;;;;;6.05;3.83;;;;;;;;;;5019648;28;20091;-70
2023/05/15 01:20:17;;;;;;;6.32;3.45;;;;;;;;;;5035135;28;20078;-77
2023/05/15 01:23:08;;;;;;;7.15;3.75;;;;;;;;;;5032447;28;20129;-73
2023/05/15 01:26:17;;;;;;;13.00;5.38;;;;;;;;;;5027976;28;20100;-71
2023/05/15 01:29:14;;;;;;;12.02;4.10;;;;;;;;;;5002901;28;20037;-73
2023/05/15 01:32:08;;;;;;;8.10;3.75;;;;;;;;;;5004095;28;20037;-73
2023/05/15 01:35:00;;;;;;;4.25;3.10;;;;;;;;;;5019695;28;20033;-73
2023/05/15 01:37:48;;;;;;;3.85;2.85;;;;;;;;;;5028581;28;20116;-71
2023/05/15 01:40:34;;;;;;;5.68;3.13;;;;;;;;;;5019354;28;20494;-70
2023/05/15 01:43:22;;;;;;;6.22;3.05;;;;;;;;;;5005538;28;20089;-79
2023/05/15 01:46:08;;;;;;;6.32;3.47;;;;;;;;;;5026801;28;20028;-80
2023/05/15 01:48:53;;;;;;;5.65;3.75;;;;;;;;;;5028981;28;20040;-80
2023/05/15 01:51:40;;;;;;;5.55;3.63;;;;;;;;;;5028857;28;20476;-81
2023/05/15 01:54:26;;;;;;;4.82;3.15;;;;;;;;;;5028585;28;20037;-80
2023/05/15 01:57:13;;;;;;;5.20;3.42;;;;;;;;;;5021088;28;20034;-73
2023/05/15 01:59:59;;;;;;;6.03;3.78;;;;;;;;;;5023466;28;20629;-69
2023/05/15 02:02:45;;;;;;;4.50;2.97;;;;;;;;;;5028716;28;20083;-70
2023/05/15 02:05:30;;;;;;;6.68;3.40;;;;;;;;;;5013257;28;20085;-71
2023/05/15 02:08:16;;;;;;;6.75;3.30;;;;;;;;;;5012880;28;20057;-70
2023/05/15 02:11:01;;;;;;;5.38;3.03;;;;;;;;;;5021719;28;20025;-70
2023/05/15 02:13:47;;;;;;;6.13;3.22;;;;;;;;;;5027827;28;20025;-70
2023/05/15 02:16:33;;;;;;;4.68;3.10;;;;;;;;;;5013340;28;20043;-79
2023/05/15 02:19:18;;;;;;;4.97;2.97;;;;;;;;;;5022806;28;20493;-74
2023/05/15 02:22:03;;;;;;;5.30;3.50;;;;;;;;;;5012983;28;20014;-77
2023/05/15 02:24:48;;;;;;;5.22;3.20;;;;;;;;;;5028433;28;20032;-76
2023/05/15 02:27:40;;;;;;;6.03;3.67;;;;;;;;;;5028299;28;20119;-75
2023/05/15 02:30:35;;;;;;;4.88;3.20;;;;;;;;;;5027147;28;20060;-74
2023/05/15 02:33:20;;;;;;;5.43;3.45;;;;;;;;;;5028187;28;20029;-75
2023/05/15 02:36:06;;;;;;;4.30;3.10;;;;;;;;;;5011963;28;20068;-73
2023/05/15 02:38:52;;;;;;;5.75;3.67;;;;;;;;;;5012465;28;20376;-76
2023/05/15 02:41:38;;;;;;;5.00;3.28;;;;;;;;;;5026666;28;20049;-75
2023/05/15 02:44:24;;;;;;;4.43;3.25;;;;;;;;;;5012078;28;20033;-74
2023/05/15 02:47:10;;;;;;;4.40;3.03;;;;;;;;;;5013320;28;20026;-77
2023/05/15 02:49:55;;;;;;;4.25;2.70;;;;;;;;;;5028550;28;20042;-77
2023/05/15 02:52:41;;;;;;;5.03;3.10;;;;;;;;;;5023954;28;20036;-71
2023/05/15 02:55:26;;;;;;;5.28;3.85;;;;;;;;;;5031938;28;20044;-74
2023/05/15 02:58:11;;;;;;;7.18;3.30;;;;;;;;;;5024284;28;20057;-72
2023/05/15 03:00:56;;;;;;;6.03;3.63;;;;;;;;;;5009881;28;20475;-72
2023/05/15 03:03:41;;;;;;;6.15;3.33;;;;;;;;;;5007632;28;20039;-73
2023/05/15 03:06:27;;;;;;;6.55;3.72;;;;;;;;;;5008430;28;20108;-72
2023/05/15 03:09:12;;;;;;;9.07;3.67;;;;;;;;;;5023097;28;20168;-73
2023/05/15 03:11:57;;;;;;;7.15;3.28;;;;;;;;;;5029123;28;20077;-71
2023/05/15 03:14:42;;;;;;;4.35;2.50;;;;;;;;;;5026546;28;20028;-72
2023/05/15 03:17:28;;;;;;;4.30;3.22;;;;;;;;;;5010233;28;20075;-70
2023/05/15 03:20:13;;;;;;;5.43;2.88;;;;;;;;;;5025080;28;20055;-72
2023/05/15 03:22:58;;;;;;;5.00;3.15;;;;;;;;;;5027103;28;20013;-72
2023/05/15 03:25:43;;;;;;;5.03;3.15;;;;;;;;;;5023372;28;20547;-69
2023/05/15 03:28:29;;;;;;;3.47;2.42;;;;;;;;;;5023270;28;20021;-72
2023/05/15 03:31:14;;;;;;;6.70;3.10;;;;;;;;;;5022516;28;20469;-71
2023/05/15 03:33:59;;;;;;;4.45;3.22;;;;;;;;;;5026839;28;20075;-75
2023/05/15 03:36:44;;;;;;;4.97;2.88;;;;;;;;;;5020956;28;20063;-75
2023/05/15 03:39:30;;;;;;;3.08;2.72;;;;;;;;;;5025884;28;20078;-76
2023/05/15 03:42:21;;;;;;;4.35;2.90;;;;;;;;;;5020390;28;20140;-77
2023/05/15 03:45:07;;;;;;;5.07;3.33;;;;;;;;;;5024812;28;20392;-77
2023/05/15 03:47:52;;;;;;;5.78;2.90;;;;;;;;;;5007324;28;20053;-81
2023/05/15 03:50:38;;;;;;;3.88;3.08;;;;;;;;;;5007118;28;20033;-70
2023/05/15 03:53:23;;;;;;;6.43;3.53;;;;;;;;;;5017986;28;20033;-71
2023/05/15 03:56:08;;;;;;;5.40;3.20;;;;;;;;;;5022060;28;20033;-70
2023/05/15 03:58:54;;;;;;;4.38;2.80;;;;;;;;;;5022572;28;20071;-72
2023/05/15 04:01:39;;;;;;;4.60;3.22;;;;;;;;;;5026612;28;20025;-71
2023/05/15 04:04:24;;;;;;;4.85;3.45;;;;;;;;;;5030403;28;20029;-71
2023/05/15 04:07:09;;;;;;;4.50;2.92;;;;;;;;;;5029342;28;20080;-80
2023/05/15 04:09:54;;;;;;;5.93;3.20;;;;;;;;;;5024880;28;20057;-73
2023/05/15 04:12:40;;;;;;;4.72;3.65;;;;;;;;;;5026787;28;20033;-72
2023/05/15 04:15:28;;;;;;;5.63;3.35;;;;;;;;;;5030567;28;20056;-74
2023/05/15 04:18:13;;;;;;;5.63;3.78;;;;;;;;;;5028499;28;20033;-74
2023/05/15 04:20:58;;;;;;;8.70;3.25;;;;;;;;;;5031497;28;20599;-72
2023/05/15 04:23:43;;;;;;;5.25;3.47;;;;;;;;;;5030751;28;20448;-72
2023/05/15 04:26:29;;;;;;;6.22;3.30;;;;;;;;;;5030505;28;20100;-78
2023/05/15 04:29:14;;;;;;;4.70;3.17;;;;;;;;;;5029415;28;20136;-74
2023/05/15 04:31:59;;;;;;;5.07;3.17;;;;;;;;;;5024160;28;20117;-70
2023/05/15 04:34:45;;;;;;;5.22;3.42;;;;;;;;;;5027724;28;20025;-71
2023/05/15 04:37:30;;;;;;;4.50;2.90;;;;;;;;;;5028487;28;20025;-71
2023/05/15 04:40:15;;;;;;;6.70;3.45;;;;;;;;;;5028561;28;20067;-71
2023/05/15 04:43:02;;;;;;;3.95;3.15;;;;;;;;;;5025106;28;20496;-74
2023/05/15 04:45:48;;;;;;;5.00;3.13;;;;;;;;;;5026898;28;20045;-76
2023/05/15 04:48:33;;;;;;;5.35;3.28;;;;;;;;;;5009954;28;20055;-79
2023/05/15 04:51:18;;;;;;;5.95;2.95;;;;;;;;;;5024437;28;20018;-78
2023/05/15 04:54:03;;;;;;;6.35;3.42;;;;;;;;;;5011124;28;20044;-77
2023/05/15 04:56:48;;;;;;;6.70;3.40;;;;;;;;;;5029601;28;20033;-77
2023/05/15 04:59:34;;;;;;;4.22;2.90;;;;;;;;;;5028642;28;20041;-76
2023/05/15 05:02:22;;;;;;;5.20;3.10;;;;;;;;;;5025727;28;20469;-73
2023/05/15 05:05:08;;;;;;;8.25;4.30;;;;;;;;;;5025486;28;20021;-72
2023/05/15 05:07:53;;;;;;;6.68;3.45;;;;;;;;;;5028237;28;20025;-71
2023/05/15 05:10:38;;;;;;;5.20;3.53;;;;;;;;;;5027215;28;20017;-72
2023/05/15 05:13:23;;;;;;;7.53;3.67;;;;;;;;;;5024006;28;20037;-71
2023/05/15 05:16:09;;;;;;;5.28;3.15;;;;;;;;;;5028161;28;20041;-71
2023/05/15 05:18:54;;;;;;;4.50;2.92;;;;;;;;;;5029669;28;20025;-71
2023/05/15 05:21:39;;;;;;;4.82;3.30;;;;;;;;;;5021807;28;20076;-71
2023/05/15 05:24:25;;;;;;;5.53;3.50;;;;;;;;;;5022540;28;20018;-70
2023/05/15 05:27:10;;;;;;;6.43;4.07;;;;;;;;;;5028824;28;20021;-71
2023/05/15 05:29:55;;;;;;;6.53;3.55;;;;;;;;;;5023089;28;20428;-69
2023/05/15 05:32:41;;;;;;;5.10;3.70;;;;;;;;;;5028213;28;20033;-70
2023/05/15 05:35:27;;;;;;;6.53;3.60;;;;;;;;;;5026237;28;20413;-72
2023/05/15 05:38:12;;;;;;;4.90;3.17;;;;;;;;;;5029302;28;20033;-72
2023/05/15 05:40:57;;;;;;;6.30;3.10;;;;;;;;;;5034919;28;20049;-69
2023/05/15 05:43:43;;;;;;;4.55;3.15;;;;;;;;;;5025771;28;20436;-71
2023/05/15 05:46:28;;;;;;;5.35;3.38;;;;;;;;;;5022430;28;20037;-70
2023/05/15 05:49:13;;;;;;;5.50;3.30;;;;;;;;;;5007664;28;20495;-69
2023/05/15 05:52:08;;;;;;;10.60;4.30;;;;;;;;;;5027612;28;20030;-69
2023/05/15 05:54:53;;;;;;;5.72;3.25;;;;;;;;;;5025903;28;20092;-72
2023/05/15 05:57:38;;;;;;;6.35;3.08;;;;;;;;;;5029020;28;20386;-71
2023/05/15 06:00:24;;;;;;;4.63;3.08;;;;;;;;;;5023845;28;20115;-70
2023/05/15 06:03:09;;;;;;;5.78;3.90;;;;;;;;;;5028319;28;20021;-70
2023/05/15 06:05:54;;;;;;;6.18;4.03;;;;;;;;;;5012327;28;20112;-70
2023/05/15 06:08:39;;;;;;;5.28;3.60;;;;;;;;;;5029121;28;20350;-74
2023/05/15 06:11:25;;;;;;;5.63;3.95;;;;;;;;;;5029388;28;20045;-70
2023/05/15 06:14:11;;;;;;;5.60;3.08;;;;;;;;;;5028625;28;20687;-72
2023/05/15 06:16:56;;;;;;;4.72;3.50;;;;;;;;;;5014281;28;20109;-78
2023/05/15 06:19:41;;;;;;;5.00;3.55;;;;;;;;;;5028292;28;20091;-73
2023/05/15 06:22:27;;;;;;;4.25;3.10;;;;;;;;;;5029038;28;20022;-73
2023/05/15 06:25:13;;;;;;;6.22;3.50;;;;;;;;;;5012578;28;20029;-75
2023/05/15 06:27:58;;;;;;;5.13;3.10;;;;;;;;;;5028265;28;20025;-74
2023/05/15 06:30:44;;;;;;;3.95;2.85;;;;;;;;;;5002279;28;20029;-74
2023/05/15 06:33:29;;;;;;;6.10;3.25;;;;;;;;;;5028285;28;20032;-71
2023/05/15 06:36:15;;;;;;;5.55;3.80;;;;;;;;;;5019072;28;20595;-83
2023/05/15 06:39:00;;;;;;;4.57;3.15;;;;;;;;;;5015504;28;20439;-81
2023/05/15 06:41:45;;;;;;;4.75;3.58;;;;;;;;;;5009429;28;20129;-81
2023/05/15 06:44:30;;;;;;;4.30;2.80;;;;;;;;;;5017338;28;20030;-83
2023/05/15 06:47:16;;;;;;;5.13;3.28;;;;;;;;;;5028898;28;20025;-82
2023/05/15 06:50:01;;;;;;;4.82;3.58;;;;;;;;;;5027299;28;20120;-80
2023/05/15 06:52:47;;;;;;;5.78;4.47;;;;;;;;;;5024651;28;20164;-74
2023/05/15 06:55:33;;;;;;;5.22;3.70;;;;;;;;;;5028030;28;20515;-70
2023/05/15 06:58:18;;;;;;;6.88;3.65;;;;;;;;;;5026986;28;20026;-75
2023/05/15 07:01:05;;;;;;;4.65;3.33;;;;;;;;;;5025843;28;20460;-69
2023/05/15 07:03:50;;;;;;;5.75;3.10;;;;;;;;;;5027862;28;20017;-74
2023/05/15 07:06:36;;;;;;;4.82;3.17;;;;;;;;;;5003125;28;20021;-71
2023/05/15 07:09:21;;;;;;;5.45;4.20;;;;;;;;;;5028620;28;20071;-72
2023/05/15 07:12:07;;;;;;;5.25;3.50;;;;;;;;;;5028363;28;20445;-74
2023/05/15 07:14:52;;;;;;;4.50;3.25;;;;;;;;;;5024941;28;20040;-81
2023/05/15 07:17:37;;;;;;;4.07;2.80;;;;;;;;;;5028898;28;20438;-83
2023/05/15 07:20:22;;;;;;;4.45;3.38;;;;;;;;;;5027043;28;20037;-85
2023/05/15 07:23:08;;;;;;;4.05;3.58;;;;;;;;;;5028429;28;20372;-82
2023/05/15 07:25:53;;;;;;;6.22;3.65;;;;;;;;;;5014948;28;20018;-83
2023/05/15 07:28:39;;;;;;;5.00;3.28;;;;;;;;;;5011560;28;20024;-71
2023/05/15 07:31:24;;;;;;;6.88;2.95;;;;;;;;;;5028315;28;20037;-74
2023/05/15 07:34:10;;;;;;;5.25;3.15;;;;;;;;;;5027520;28;20135;-75
2023/05/15 07:36:55;;;;;;;5.10;3.28;;;;;;;;;;5027120;28;20029;-74
2023/05/15 07:39:40;;;;;;;3.80;3.05;;;;;;;;;;5018952;28;20032;-74
2023/05/15 07:42:25;;;;;;;3.25;2.28;;;;;;;;;;5027471;28;20558;-74
2023/05/15 07:45:11;;;;;;;4.13;2.70;;;;;;;;;;5014733;28;20084;-74
2023/05/15 07:47:57;;;;;;;4.00;2.90;;;;;;;;;;5016824;28;20025;-77
2023/05/15 07:50:43;;;;;;;5.05;2.60;;;;;;;;;;5025905;28;20037;-76
2023/05/15 07:53:29;;;;;;;3.75;2.65;;;;;;;;;;5024174;28;20025;-75
2023/05/15 07:56:14;;;;;;;3.40;2.70;;;;;;;;;;5001318;28;20033;-75
2023/05/15 07:58:59;;;;;;;5.63;2.83;;;;;;;;;;5027834;28;20029;-76
2023/05/15 08:01:45;;;;;;;4.25;3.15;;;;;;;;;;5028066;28;20025;-75
2023/05/15 08:04:30;;;;;;;3.92;2.50;;;;;;;;;;5026784;28;20393;-74
2023/05/15 08:07:15;;;;;;;3.03;2.35;;;;;;;;;;5027866;28;20029;-71
2023/05/15 08:10:00;;;;;;;7.57;3.30;;;;;;;;;;5002500;28;20022;-74
2023/05/15 08:12:46;;;;;;;4.53;2.83;;;;;;;;;;5010063;28;20384;-75
2023/05/15 08:15:32;;;;;;;3.75;2.63;;;;;;;;;;5015499;28;20067;-74
2023/05/15 08:18:17;;;;;;;3.13;2.40;;;;;;;;;;5023029;28;20187;-73
2023/05/15 08:21:02;;;;;;;3.92;2.78;;;;;;;;;;5026478;28;20638;-74
2023/05/15 08:23:47;;;;;;;4.80;2.90;;;;;;;;;;5027568;28;20021;-71
2023/05/15 08:26:33;;;;;;;4.63;3.10;;;;;;;;;;5027020;28;20030;-72
2023/05/15 08:29:18;;;;;;;5.50;3.28;;;;;;;;;;5008495;28;20057;-71
2023/05/15 08:32:04;;;;;;;3.80;2.47;;;;;;;;;;5010093;28;20546;-72
2023/05/15 08:34:49;;;;;;;3.90;2.75;;;;;;;;;;5027290;28;20025;-71
2023/05/15 08:37:35;;;;;;;2.78;2.15;;;;;;;;;;5027771;28;20036;-70
2023/05/15 08:40:20;;;;;;;5.57;2.50;;;;;;;;;;5027959;28;20032;-70
2023/05/15 08:43:09;;;;;;;2.55;2.08;;;;;;;;;;5030751;28;20049;-81
2023/05/15 08:45:55;;;;;;;6.38;2.38;;;;;;;;;;5031095;28;20017;-73
2023/05/15 08:48:40;;;;;;;4.57;2.60;;;;;;;;;;5002865;28;20038;-72
2023/05/15 08:51:26;;;;;;;4.65;3.25;;;;;;;;;;5016604;28;20112;-72
2023/05/15 08:54:11;;;;;;;5.40;2.85;;;;;;;;;;5015076;28;20061;-71
2023/05/15 08:56:57;;;;;;;4.78;2.75;;;;;;;;;;5011312;28;20030;-73
2023/05/15 08:59:42;;;;;;;3.80;2.78;;;;;;;;;;5013568;28;20029;-72
2023/05/15 09:02:27;;;;;;;6.88;2.80;;;;;;;;;;5014120;28;20025;-70
2023/05/15 09:05:12;;;;;;;3.33;2.33;;;;;;;;;;5030120;28;20120;-71
2023/05/15 09:08:00;;;;;;;4.25;2.60;;;;;;;;;;5029138;28;20535;-70
2023/05/15 09:10:47;;;;;;;3.05;2.70;;;;;;;;;;5016157;28;20022;-72
2023/05/15 09:13:32;;;;;;;3.63;2.88;;;;;;;;;;5016323;28;20428;-73
2023/05/15 09:16:19;;;;;;;3.95;3.17;;;;;;;;;;5029225;28;20064;-71
2023/05/15 09:19:05;;;;;;;8.32;3.90;;;;;;;;;;5019057;28;20534;-81
2023/05/15 09:21:51;;;;;;;4.03;2.55;;;;;;;;;;5030236;28;20025;-75
2023/05/15 09:24:36;;;;;;;6.43;3.30;;;;;;;;;;5030364;28;20105;-77
2023/05/15 09:27:21;;;;;;;5.18;3.38;;;;;;;;;;5030595;28;20036;-75
2023/05/15 09:30:07;;;;;;;3.97;2.85;;;;;;;;;;5033659;28;20095;-75
2023/05/15 09:32:53;;;;;;;5.55;3.17;;;;;;;;;;5028320;28;20037;-77
2023/05/15 09:35:39;;;;;;;8.35;3.72;;;;;;;;;;5029776;28;20033;-76
2023/05/15 09:38:25;;;;;;;5.00;3.13;;;;;;;;;;5029489;28;20084;-70
2023/05/15 09:41:10;;;;;;;4.72;3.15;;;;;;;;;;5010054;28;20076;-75
2023/05/15 09:43:55;;;;;;;7.28;2.95;;;;;;;;;;5026935;28;20044;-75
2023/05/15 09:46:41;;;;;;;5.38;3.20;;;;;;;;;;5028829;28;20021;-74
2023/05/15 09:49:27;;;;;;;6.68;3.00;;;;;;;;;;5002882;28;20382;-74
2023/05/15 09:52:14;;;;;;;3.40;2.90;;;;;;;;;;5027573;28;20026;-74
2023/05/15 09:54:59;;;;;;;4.40;3.03;;;;;;;;;;5020497;28;20033;-71
2023/05/15 09:58:05;;;;;;;7.22;3.33;;;;;;;;;;5029447;28;20059;-74
2023/05/15 10:00:50;;;;;;;4.05;2.88;;;;;;;;;;5037817;28;20035;-71
2023/05/15 10:03:35;;;;;;;4.22;2.85;;;;;;;;;;5029351;28;20067;-71
2023/05/15 10:06:21;;;;;;;4.43;3.00;;;;;;;;;;5015668;28;20017;-71
2023/05/15 10:09:06;;;;;;;3.63;2.80;;;;;;;;;;5028643;28;20542;-70
2023/05/15 10:11:52;;;;;;;5.25;3.20;;;;;;;;;;5009240;28;20032;-71
2023/05/15 10:14:38;;;;;;;7.93;3.47;;;;;;;;;;5027015;28;20565;-71
2023/05/15 10:17:23;;;;;;;5.13;3.15;;;;;;;;;;5028434;28;20469;-73
2023/05/15 10:20:09;;;;;;;4.38;2.90;;;;;;;;;;5029488;28;20029;-75
2023/05/15 10:22:55;;;;;;;6.95;2.63;;;;;;;;;;5009603;28;20026;-74
2023/05/15 10:25:43;;;;;;;5.13;3.15;;;;;;;;;;5015212;28;20044;-73
2023/05/15 10:28:29;;;;;;;3.83;3.03;;;;;;;;;;5029022;28;20036;-72
2023/05/15 10:31:14;;;;;;;5.50;2.85;;;;;;;;;;5028534;28;20024;-74
2023/05/15 10:34:00;;;;;;;4.95;2.63;;;;;;;;;;5027354;28;20021;-70
2023/05/15 10:36:46;;;;;;;4.00;2.95;;;;;;;;;;5028496;28;20064;-76
2023/05/15 10:39:31;;;;;;;5.07;2.55;;;;;;;;;;5027290;28;20026;-75
2023/05/15 10:42:16;;;;;;;4.55;2.50;;;;;;;;;;5020294;28;20043;-76
2023/05/15 10:45:02;;;;;;;4.43;2.88;;;;;;;;;;5028151;28;20017;-75
2023/05/15 10:47:47;;;;;;;5.95;2.35;;;;;;;;;;5016610;28;20108;-76
2023/05/15 10:50:32;;;;;;;4.20;2.75;;;;;;;;;;5026029;28;20111;-80
2023/05/15 10:53:18;;;;;;;3.85;2.72;;;;;;;;;;5024796;28;20036;-80
2023/05/15 10:56:04;;;;;;;4.82;2.53;;;;;;;;;;5028540;28;20029;-72
2023/05/15 10:58:50;;;;;;;4.00;2.40;;;;;;;;;;5028312;28;20500;-73
2023/05/15 11:01:39;;;;;;;4.00;2.40;;;;;;;;;;5027847;28;20473;-69
2023/05/15 11:04:26;;;;;;;8.52;2.90;;;;;;;;;;5028523;28;20052;-72
2023/05/15 11:07:12;;;;;;;3.15;2.40;;;;;;;;;;5014983;28;20075;-70
2023/05/15 11:09:57;;;;;;;4.28;2.35;;;;;;;;;;5028546;28;20041;-70
2023/05/15 11:13:01;;;;;;;4.10;2.58;;;;;;;;;;5028213;28;20037;-71
2023/05/15 11:15:46;;;;;;;2.72;1.80;;;;;;;;;;5026573;28;20117;-71
2023/05/15 11:18:35;;;;;;;4.18;2.10;;;;;;;;;;5014101;28;20307;-71
2023/05/15 11:21:20;;;;;;;3.13;2.15;;;;;;;;;;5036400;28;20028;-71
2023/05/15 11:24:06;;;;;;;3.45;2.17;;;;;;;;;;5027981;28;20060;-71
2023/05/15 11:26:58;;;;;;;4.82;2.38;;;;;;;;;;5028037;28;20033;-71
2023/05/15 11:30:02;;;;;;;3.55;2.22;;;;;;;;;;5013121;28;20021;-74
2023/05/15 11:32:52;;;;;;;3.47;2.03;;;;;;;;;;5022289;28;20056;-76
2023/05/15 11:35:42;;;;;;;4.85;2.33;;;;;;;;;;5027662;28;20044;-75
2023/05/15 11:38:27;;;;;;;4.13;2.47;;;;;;;;;;5027864;28;20022;-75
2023/05/15 11:41:17;;;;;;;2.90;2.22;;;;;;;;;;5028104;28;20025;-75
2023/05/15 11:44:02;;;;;;;2.85;2.25;;;;;;;;;;5027250;28;20038;-78
2023/05/15 11:46:48;;;;;;;3.45;2.10;;;;;;;;;;5028112;28;20052;-70
2023/05/15 11:49:34;;;;;;;3.05;2.08;;;;;;;;;;5015915;28;20059;-70
2023/05/15 11:52:19;;;;;;;4.53;2.35;;;;;;;;;;5011850;28;20443;-68
2023/05/15 11:55:05;;;;;;;2.75;2.13;;;;;;;;;;5018062;28;20041;-69
2023/05/15 11:57:50;;;;;;;3.38;2.03;;;;;;;;;;5027781;28;20029;-69
2023/05/15 12:00:35;;;;;;;5.15;2.25;;;;;;;;;;5008972;28;20030;-70
2023/05/15 12:03:25;;;;;;;5.63;2.67;;;;;;;;;;5027940;28;20051;-72
2023/05/15 12:06:11;;;;;;;3.92;2.35;;;;;;;;;;5027747;28;20021;-74
2023/05/15 12:08:56;;;;;;;5.03;2.42;;;;;;;;;;5027727;28;20112;-74
2023/05/15 12:11:51;;;;;;;3.92;2.50;;;;;;;;;;5015826;28;20028;-73
2023/05/15 12:14:38;;;;;;;5.15;2.38;;;;;;;;;;5026327;28;20079;-72
2023/05/15 12:17:23;;;;;;;5.43;2.45;;;;;;;;;;5041060;28;20074;-72
2023/05/15 12:20:18;;;;;;;5.18;2.00;;;;;;;;;;5034092;28;20083;-72
2023/05/15 12:23:04;;;;;;;6.43;2.47;;;;;;;;;;5031862;28;20475;-72
2023/05/15 12:25:52;;;;;;;2.85;2.10;;;;;;;;;;5019658;28;20060;-74
2023/05/15 12:28:37;;;;;;;5.70;2.75;;;;;;;;;;5030578;28;20025;-74
2023/05/15 12:31:22;;;;;;;3.47;2.72;;;;;;;;;;5031589;28;20455;-75
2023/05/15 12:34:08;;;;;;;4.63;2.22;;;;;;;;;;5018189;28;20818;-73
2023/05/15 12:36:53;;;;;;;3.45;2.40;;;;;;;;;;5031190;28;20030;-73
2023/05/15 12:40:11;;;;;;;2.63;2.35;;;;;;;;;;5021663;28;20025;-73
2023/05/15 12:42:56;;;;;;;2.97;2.20;;;;;;;;;;5026307;28;20053;-69
2023/05/15 12:45:41;;;;;;;4.20;2.28;;;;;;;;;;5031350;28;20095;-74
2023/05/15 12:48:31;;;;;;;3.40;2.30;;;;;;;;;;5031189;28;20033;-73
2023/05/15 12:51:16;;;;;;;4.25;2.50;;;;;;;;;;5018557;28;20598;-74
2023/05/15 12:54:01;;;;;;;3.63;2.40;;;;;;;;;;5017039;28;20104;-75
2023/05/15 12:56:47;;;;;;;2.70;1.90;;;;;;;;;;5029842;28;20029;-74
2023/05/15 12:59:32;;;;;;;3.70;2.63;;;;;;;;;;5030982;28;20179;-73
2023/05/15 13:02:17;;;;;;;4.38;2.33;;;;;;;;;;5030813;28;20041;-80
2023/05/15 13:05:03;;;;;;;3.85;2.40;;;;;;;;;;5011052;28;20041;-72
2023/05/15 13:07:50;;;;;;;3.53;2.25;;;;;;;;;;5026222;28;20029;-73
2023/05/15 13:10:36;;;;;;;7.38;3.03;;;;;;;;;;5030963;28;20021;-72
2023/05/15 13:13:21;;;;;;;3.95;2.60;;;;;;;;;;5026874;28;20033;-71
2023/05/15 13:16:16;;;;;;;4.28;2.30;;;;;;;;;;5030785;28;20049;-71
2023/05/15 13:19:01;;;;;;;4.13;2.40;;;;;;;;;;5030704;28;20452;-76
2023/05/15 13:21:49;;;;;;;4.20;2.80;;;;;;;;;;5029379;28;20037;-73
2023/05/15 13:24:34;;;;;;;5.57;2.42;;;;;;;;;;5030485;28;20048;-73
2023/05/15 13:27:19;;;;;;;4.95;2.70;;;;;;;;;;5028274;28;20108;-72
2023/05/15 13:30:05;;;;;;;3.63;2.08;;;;;;;;;;5016339;28;20075;-71
2023/05/15 13:32:51;;;;;;;5.68;2.60;;;;;;;;;;5029493;28;20051;-71
2023/05/15 13:35:36;;;;;;;4.07;2.45;;;;;;;;;;5030281;28;20029;-72
2023/05/15 13:38:21;;;;;;;4.38;2.50;;;;;;;;;;5030248;28;20120;-71
2023/05/15 13:41:07;;;;;;;3.88;2.60;;;;;;;;;;5004713;28;20028;-72
2023/05/15 13:43:53;;;;;;;3.88;2.67;;;;;;;;;;5029229;28;20056;-72
2023/05/15 13:46:38;;;;;;;4.47;2.92;;;;;;;;;;5030033;28;20022;-71
2023/05/15 13:49:23;;;;;;;3.35;2.35;;;;;;;;;;5029490;28;20491;-72
2023/05/15 13:52:09;;;;;;;8.95;2.95;;;;;;;;;;5029923;28;20033;-72
2023/05/15 13:54:54;;;;;;;6.88;3.22;;;;;;;;;;5015758;28;20022;-75
2023/05/15 13:57:40;;;;;;;3.28;2.85;;;;;;;;;;5028477;28;20018;-72
2023/05/15 14:00:25;;;;;;;4.70;3.10;;;;;;;;;;5029697;28;20032;-72
2023/05/15 14:03:11;;;;;;;5.70;3.67;;;;;;;;;;5029992;28;20487;-71
2023/05/15 14:05:56;;;;;;;11.88;3.70;;;;;;;;;;5015918;28;20361;-70
2023/05/15 14:08:41;;;;;;;5.72;2.90;;;;;;;;;;5029459;28;20030;-70
2023/05/15 14:11:26;;;;;;;4.65;2.65;;;;;;;;;;5034748;28;20048;-68
2023/05/15 14:14:12;;;;;;;5.38;2.70;;;;;;;;;;5029211;28;20032;-73
2023/05/15 14:16:57;;;;;;;4.13;2.63;;;;;;;;;;5028820;28;20033;-69
2023/05/15 14:19:42;;;;;;;4.47;2.67;;;;;;;;;;5029375;28;20432;-73
2023/05/15 14:22:28;;;;;;;5.35;2.88;;;;;;;;;;5029502;28;20025;-69
2023/05/15 14:25:13;;;;;;;7.03;3.00;;;;;;;;;;5028170;28;20403;-68
2023/05/15 14:27:58;;;;;;;6.78;3.47;;;;;;;;;;5029007;28;20120;-68
2023/05/15 14:30:43;;;;;;;5.70;3.13;;;;;;;;;;5014667;28;20151;-70
2023/05/15 14:33:29;;;;;;;5.35;2.92;;;;;;;;;;5028450;28;20499;-73
2023/05/15 14:36:14;;;;;;;4.97;2.85;;;;;;;;;;5014820;28;20037;-70
2023/05/15 14:38:59;;;;;;;3.70;2.75;;;;;;;;;;5028343;28;20396;-69
2023/05/15 14:41:44;;;;;;;5.97;3.15;;;;;;;;;;5027771;28;20050;-70
2023/05/15 14:44:30;;;;;;;6.88;3.42;;;;;;;;;;5014976;28;20542;-71
2023/05/15 14:47:15;;;;;;;6.95;3.55;;;;;;;;;;5028920;28;20025;-72
2023/05/15 14:50:00;;;;;;;5.03;3.28;;;;;;;;;;5028830;28;20056;-75
2023/05/15 14:52:46;;;;;;;5.13;3.00;;;;;;;;;;5014564;28;20014;-76
2023/05/15 14:55:31;;;;;;;5.70;3.17;;;;;;;;;;5027691;28;20037;-73
2023/05/15 14:58:16;;;;;;;5.43;3.47;;;;;;;;;;5028564;28;20028;-74
2023/05/15 15:01:02;;;;;;;5.88;3.78;;;;;;;;;;5028053;28;20033;-74
2023/05/15 15:03:47;;;;;;;4.97;3.25;;;;;;;;;;5015085;28;20075;-74
2023/05/15 15:06:32;;;;;;;6.43;3.67;;;;;;;;;;5030964;28;20112;-73
2023/05/15 15:09:18;;;;;;;4.57;3.08;;;;;;;;;;5026779;28;20472;-69
2023/05/15 15:12:04;;;;;;;5.68;3.22;;;;;;;;;;5028237;28;20488;-71
2023/05/15 15:14:49;;;;;;;5.22;3.00;;;;;;;;;;5028120;28;20212;-70
2023/05/15 15:17:35;;;;;;;3.60;2.78;;;;;;;;;;5028412;28;20052;-71
2023/05/15 15:20:21;;;;;;;5.47;3.35;;;;;;;;;;5027832;28;20045;-70
2023/05/15 15:23:07;;;;;;;3.95;3.03;;;;;;;;;;5027107;28;20110;-73
2023/05/15 15:25:52;;;;;;;7.13;3.03;;;;;;;;;;5016841;28;20059;-71
2023/05/15 15:28:38;;;;;;;4.03;2.97;;;;;;;;;;5027392;28;20506;-72
2023/05/15 15:31:23;;;;;;;4.90;3.22;;;;;;;;;;5013960;28;20441;-72
2023/05/15 15:34:09;;;;;;;4.43;3.13;;;;;;;;;;5015292;28;20025;-72
2023/05/15 15:36:54;;;;;;;4.60;3.30;;;;;;;;;;5027665;28;20036;-71
2023/05/15 15:39:39;;;;;;;5.38;3.10;;;;;;;;;;5020731;28;20030;-71
2023/05/15 15:42:26;;;;;;;4.88;2.70;;;;;;;;;;5027481;28;20059;-73
2023/05/15 15:45:11;;;;;;;4.40;2.83;;;;;;;;;;5028311;28;20044;-73
2023/05/15 15:47:56;;;;;;;5.60;2.95;;;;;;;;;;5028064;28;20029;-74
2023/05/15 15:50:42;;;;;;;7.07;3.50;;;;;;;;;;5026854;28;20156;-74
2023/05/15 15:53:27;;;;;;;4.97;2.97;;;;;;;;;;5027020;28;20087;-72
2023/05/15 15:56:13;;;;;;;5.28;3.40;;;;;;;;;;5013769;28;20128;-74
2023/05/15 15:58:58;;;;;;;5.78;4.10;;;;;;;;;;5013668;28;20057;-73
2023/05/15 16:01:43;;;;;;;7.15;3.70;;;;;;;;;;5027932;28;20324;-75
2023/05/15 16:04:28;;;;;;;6.05;3.95;;;;;;;;;;5025468;28;20029;-76
2023/05/15 16:07:14;;;;;;;9.93;3.55;;;;;;;;;;5027857;28;20495;-76
2023/05/15 16:09:59;;;;;;;5.18;3.33;;;;;;;;;;5026602;28;20033;-76
2023/05/15 16:12:45;;;;;;;5.63;3.40;;;;;;;;;;5027048;28;20487;-77
2023/05/15 16:15:30;;;;;;;5.70;3.90;;;;;;;;;;5014324;28;20029;-77
2023/05/15 16:18:15;;;;;;;6.43;3.60;;;;;;;;;;5026104;28;20568;-78
2023/05/15 16:21:00;;;;;;;6.10;3.92;;;;;;;;;;5018614;28;20056;-76
2023/05/15 16:23:46;;;;;;;6.32;4.28;;;;;;;;;;5026346;28;20029;-70
2023/05/15 16:26:31;;;;;;;5.90;4.13;;;;;;;;;;5014110;28;20017;-80
2023/05/15 16:29:20;;;;;;;5.68;3.92;;;;;;;;;;5019277;28;20388;-79
2023/05/15 16:32:05;;;;;;;6.40;3.88;;;;;;;;;;5025533;28;20020;-80
2023/05/15 16:34:50;;;;;;;6.20;3.28;;;;;;;;;;5026428;28;20025;-80